• Join FlightAware (Why Join?)
  • Login
  • US Flag 
02:20AM EDT


 

Airport Tracker/Info


-or-


 

Live Flight TrackerFlight Track Log ✈ AAL1129 ✈ 30-Apr-2013 ✈ KIND - KDFW

Flight Track Log - Related Links

Times and Time Zones

All times are in EDT time to prevent confusion due to time zone crossing. See the AAL1129 flight status page for this flight to view local times or setup timezone preferences in your user account.

Time Position Orientation Groundspeed Altitude Reporting Facility
EDT Latitude Longitude Course Direction KTS MPH feet Rate Location/Type
04:41PM 39.7000 -86.3167 252° West 167 192 1,400  Level Indianapolis TRACON
04:41PM 39.7000 -86.3333 270° West 173 199 2,200 2,220 Climbing Indianapolis TRACON
04:42PM 39.6500 -86.3833 218° Southwest 251 289 4,300 2,760 Climbing Indianapolis TRACON
04:44PM 39.6131 -86.6849 256° West  Level FlightAware Approximate
04:44PM 39.6258 -86.4961 254° West 273 314 8,200  Level Indianapolis Center
04:45PM 39.5858 -86.8216 255° West  Level FlightAware Approximate
04:45PM 39.6103 -86.5989 259° West 283 326 10,700  Level Indianapolis Center
04:46PM 39.5493 -86.9529 252° West  Level FlightAware Approximate
04:46PM 39.5886 -86.7217 257° West 332 382 12,900  Level Indianapolis Center
04:47PM 39.5158 -87.0871 252° West  Level FlightAware Approximate
04:47PM 39.5928 -86.8539 272° West 358 412 15,400  Level Indianapolis Center
04:48PM 39.5958 -86.9942 272° West 379 436 18,600 2,580 Climbing Indianapolis Center
04:49PM 39.5931 -87.1353 269° West 388 447 20,800 2,040 Climbing Indianapolis Center
04:50PM 39.5956 -87.3086 271° West 406 467 22,900 1,860 Climbing Indianapolis Center
04:51PM 39.5944 -87.4633 270° West 420 483 24,700 1,500 Climbing Indianapolis Center
04:52PM 39.5956 -87.6222 271° West 433 498 26,100 1,440 Climbing Indianapolis Center
04:53PM 39.5942 -87.7858 269° West 448 516 27,700 1,500 Climbing Indianapolis Center
04:54PM 39.5939 -87.9533 270° West 458 527 29,200 1,380 Climbing Indianapolis Center
04:54PM 39.5931 -87.9908 268° West 458 527 29,500 2,100 Climbing Kansas City Center
04:55PM 39.5922 -88.1553 270° West 458 527 32,000 1,860 Climbing Kansas City Center
04:56PM 39.5900 -88.3431 269° West 442 509 33,400 1,200 Climbing Kansas City Center
04:57PM 39.5900 -88.4981 270° West 435 501 34,500 1,020 Climbing Kansas City Center
04:58PM 39.5883 -88.6400 269° West 430 495 35,600 720 Climbing Kansas City Center
04:59PM 39.5339 -88.7653 241° Southwest 424 488 36,000 180 Climbing Kansas City Center
05:00PM 39.4564 -88.8811 229° Southwest 425 489 36,000  Level Kansas City Center
05:01PM 39.3769 -89.0258 235° Southwest 427 491 36,000  Level Kansas City Center
05:02PM 39.3064 -89.1503 234° Southwest 429 494 36,000  Level Kansas City Center
05:03PM 39.2367 -89.2742 234° Southwest 428 493 36,000  Level Kansas City Center
05:05PM 39.1561 -89.4200 235° Southwest 427 491 36,000  Level Kansas City Center
05:06PM 39.0850 -89.5464 234° Southwest 434 499 36,000  Level Kansas City Center
05:07PM 39.0092 -89.6806 234° Southwest 433 498 36,000  Level Kansas City Center
05:08PM 38.9375 -89.8050 234° Southwest 434 499 36,000  Level Kansas City Center
05:09PM 38.8694 -89.9228 233° Southwest 434 499 36,000  Level Kansas City Center
05:10PM 38.7911 -90.0628 234° Southwest 431 496 36,000  Level Kansas City Center
05:11PM 38.7178 -90.1872 233° Southwest 434 499 36,000  Level Kansas City Center
05:12PM 38.6442 -90.3114 233° Southwest 436 502 36,000  Level Kansas City Center
05:13PM 38.5731 -90.4369 234° Southwest 436 502 36,000  Level Kansas City Center
05:14PM 38.4964 -90.5614 232° Southwest 443 510 36,000  Level Kansas City Center
05:15PM 38.4103 -90.7033 232° Southwest 440 506 36,000  Level Kansas City Center
05:16PM 38.3358 -90.8269 233° Southwest 439 505 36,000  Level Kansas City Center
05:17PM 38.2614 -90.9494 232° Southwest 440 506 36,000  Level Kansas City Center
05:18PM 38.1864 -91.0731 232° Southwest 442 509 36,000  Level Kansas City Center
05:19PM 38.1056 -91.2050 232° Southwest 441 507 36,000  Level Kansas City Center
05:20PM 38.0311 -91.3272 232° Southwest 439 505 36,000  Level Kansas City Center
05:21PM 37.9556 -91.4508 232° Southwest 440 506 36,000  Level Kansas City Center
05:22PM 37.8800 -91.5736 232° Southwest 438 504 36,000  Level Kansas City Center
05:23PM 37.7894 -91.7203 232° Southwest 438 504 36,000  Level Kansas City Center
05:24PM 37.7125 -91.8433 232° Southwest 442 509 36,000  Level Kansas City Center
05:25PM 37.6358 -91.9681 232° Southwest 444 511 36,000  Level Kansas City Center
05:26PM 37.5583 -92.0917 232° Southwest 444 511 36,000  Level Kansas City Center
05:27PM 37.4814 -92.2156 232° Southwest 445 512 36,000  Level Kansas City Center
05:28PM 37.4036 -92.3406 232° Southwest 447 514 36,000  Level Kansas City Center
05:29PM 37.3250 -92.4628 231° Southwest 447 514 36,000  Level Kansas City Center
05:30PM 37.2467 -92.5853 231° Southwest 446 513 36,000  Level Kansas City Center
05:31PM 37.1519 -92.7306 231° Southwest 446 513 36,000  Level Kansas City Center
05:32PM 37.0733 -92.8533 231° Southwest 449 517 36,000  Level Kansas City Center
05:33PM 36.9950 -92.9756 231° Southwest 448 516 36,000  Level Kansas City Center
05:34PM 36.9164 -93.0969 231° Southwest 449 517 36,000  Level Kansas City Center
05:36PM 36.8047 -93.1844 212° Southwest 448 516 36,000  Level Kansas City Center
05:36PM 36.7678 -93.2214 219° Southwest 446 513 36,000  Level Memphis Center
05:37PM 36.6617 -93.3006 211° Southwest 446 513 36,000  Level Memphis Center
05:38PM 36.5597 -93.3872 214° Southwest 451 519 36,000  Level Memphis Center
05:39PM 36.4642 -93.4611 212° Southwest 451 519 36,000  Level Memphis Center
05:40PM 36.3681 -93.5478 216° Southwest 445 512 36,000  Level Memphis Center
05:41PM 36.2678 -93.6339 215° Southwest 440 506 36,000  Level Memphis Center
05:42PM 36.1678 -93.7147 213° Southwest 440 506 36,000  Level Memphis Center
05:43PM 36.0694 -93.8006 215° Southwest 435 501 36,000  Level Memphis Center
05:44PM 35.9583 -93.8933 214° Southwest 435 501 36,000  Level Memphis Center
05:45PM 35.8600 -93.9761 214° Southwest 435 501 36,000  Level Memphis Center
05:46PM 35.7703 -94.0542 215° Southwest 430 495 36,000  Level Memphis Center
05:47PM 35.6761 -94.1317 214° Southwest 433 498 36,000  Level Memphis Center
05:48PM 35.5672 -94.2186 213° Southwest 424 488 36,000  Level Memphis Center
05:49PM 35.4708 -94.3008 215° Southwest 430 495 36,000  Level Memphis Center
05:50PM 35.3828 -94.3756 215° Southwest 430 495 36,000  Level Memphis Center
05:51PM 35.2758 -94.4594 213° Southwest 430 495 36,000  Level Memphis Center
05:52PM 35.1792 -94.5411 215° Southwest 430 495 36,000  Level Memphis Center
05:53PM 35.0300 -94.6675 215° Southwest 412 474 36,000  Level Fort Worth Center
05:54PM 34.9422 -94.7592 221° Southwest 423 487 36,000  Level Fort Worth Center
05:55PM 34.8647 -94.8400 221° Southwest 423 487 36,000  Level Fort Worth Center
05:56PM 34.7769 -94.9361 222° Southwest 423 487 36,000  Level Fort Worth Center
05:57PM 34.6911 -95.0269 221° Southwest 423 487 36,000  Level Fort Worth Center
05:58PM 34.6011 -95.1203 220° Southwest 423 487 36,000  Level Fort Worth Center
05:59PM 34.5150 -95.2133 222° Southwest 429 494 36,000  Level Fort Worth Center
06:00PM 34.4250 -95.3089 221° Southwest 429 494 36,000  Level Fort Worth Center
06:01PM 34.3367 -95.4039 222° Southwest 429 494 36,000  Level Fort Worth Center
06:02PM 34.2506 -95.4939 221° Southwest 424 488 36,000 -180 Level Fort Worth Center
06:03PM 34.1519 -95.5939 220° Southwest 430 495 35,700 -1,500 Descending Fort Worth Center
06:04PM 34.0697 -95.6808 221° Southwest 430 495 33,000 -2,880 Descending Fort Worth Center
06:05PM 33.9750 -95.7781 220° Southwest 430 495 30,000 -3,300 Descending Fort Worth Center
06:06PM 33.8803 -95.8772 221° Southwest 443 510 26,400 -3,540 Descending Fort Worth Center
06:07PM 33.7875 -95.9764 222° Southwest 454 522 23,000 -3,360 Descending Fort Worth Center
06:08PM 33.6842 -96.0831 221° Southwest 454 522 19,700 -3,000 Descending Fort Worth Center
06:09PM 33.6036 -96.1639 220° Southwest 434 499 17,100 -2,700 Descending Fort Worth Center
06:10PM 33.5128 -96.2625 222° Southwest 421 484 14,300 -2,580 Descending Fort Worth Center
06:11PM 33.4467 -96.3456 226° Southwest 390 449 12,000 -1,800 Descending Fort Worth Center
06:12PM 33.3722 -96.4333 225° Southwest 358 412 10,800 -1,080 Descending Fort Worth Center
06:13PM 33.3144 -96.5011 224° Southwest 325 374 9,900 -1,140 Descending Fort Worth Center
06:14PM 33.2628 -96.5761 231° Southwest 304 350 8,600 -1,500 Descending Fort Worth Center
06:15PM 33.2403 -96.6733 255° West 278 320 6,900 -1,380 Descending Fort Worth Center
06:16PM 33.2117 -96.7506 246° West 283 326 5,900 -840 Descending Fort Worth Center
06:17PM 33.1597 -96.8303 232° Southwest 283 326 5,300 -660 Descending Fort Worth Center
06:18PM 33.1183 -96.8950 233° Southwest 283 326 4,600 -1,200 Descending Fort Worth Center
06:19PM 33.0667 -96.9667 229° Southwest 251 289 3,000 -1,680 Descending Dallas / Fort Worth TRACON